Time;durP1;ratioP1;P1;durP2;ratioP2;P2;SDS_P1;SDS_P2;PMS_P1;PMS_P2;Temp;Humidity;BMP_temperature;BMP_pressure;BME280_temperature;BME280_humidity;BME280_pressure;Samples;Min_cycle;Max_cycle;Signal;HPM_P1;HPM_P2
2021/05/06 00:29:55;;;;;;;4.32;1.73;;;;;;;-141.50;100.00;63355.56;5049254;28;20594;-79
2021/05/06 00:33:25;;;;;;;5.43;2.40;;;;;;;-141.50;100.00;63355.56;5055593;28;20040;-78
2021/05/06 00:35:52;;;;;;;3.33;2.25;;;;;;;-141.50;100.00;63355.56;5053264;28;20082;-80
2021/05/06 00:38:29;;;;;;;4.88;2.58;;;;;;;-141.50;100.00;63355.56;5036334;28;20078;-78
2021/05/06 00:41:16;;;;;;;7.65;2.75;;;;;;;-141.50;100.00;63355.56;5037067;28;20055;-79
2021/05/06 00:54:56;;;;;;;;;;;;;;;-141.50;100.00;63355.56;5052836;28;20063;-79
2021/05/06 00:57:37;;;;;;;5.22;2.67;;;;;;;-141.50;100.00;63355.56;5035938;28;19921;-80
2021/05/06 01:00:26;;;;;;;4.07;2.35;;;;;;;-141.50;100.00;63355.56;5055644;28;20231;-80
2021/05/06 01:03:02;;;;;;;7.10;2.72;;;;;;;-141.50;100.00;63355.56;5055104;28;20075;-80
2021/05/06 01:05:33;;;;;;;4.57;2.90;;;;;;;-141.50;100.00;63355.56;5038815;28;20053;-79
2021/05/06 01:11:28;;;;;;;4.13;2.70;;;;;;;-141.50;100.00;63355.56;4974182;28;20158;-79
2021/05/06 01:13:51;;;;;;;3.97;2.70;;;;;;;-141.50;100.00;63355.56;5051522;28;20083;-78
2021/05/06 01:16:18;;;;;;;5.53;2.90;;;;;;;-141.50;100.00;63355.56;5038519;28;20102;-79
2021/05/06 01:18:44;;;;;;;4.88;2.95;;;;;;;-141.50;100.00;63355.56;5057755;28;20041;-78
2021/05/06 01:21:10;;;;;;;4.20;2.88;;;;;;;-141.50;100.00;63355.56;5060265;28;20041;-79
2021/05/06 01:23:40;;;;;;;6.20;2.70;;;;;;;-141.50;100.00;63355.56;5060676;28;20049;-79
2021/05/06 01:26:14;;;;;;;4.43;2.80;;;;;;;-141.50;100.00;63355.56;5061681;28;20040;-79
2021/05/06 01:28:44;;;;;;;6.47;2.85;;;;;;;-141.50;100.00;63355.56;5072228;28;20045;-80
2021/05/06 01:31:22;;;;;;;4.80;2.78;;;;;;;-141.50;100.00;63355.56;5065934;28;20063;-79
2021/05/06 01:34:01;;;;;;;6.38;3.05;;;;;;;-141.50;100.00;63355.56;5058561;28;20056;-80
2021/05/06 01:36:32;;;;;;;4.25;2.70;;;;;;;-141.50;100.00;63355.56;5038380;28;20045;-79
2021/05/06 01:41:51;;;;;;;4.85;2.78;;;;;;;-141.50;100.00;63355.56;5057618;28;20064;-79
2021/05/06 01:57:59;;;;;;;6.90;4.05;;;;;;;-141.50;100.00;63355.56;5052065;28;20041;-80
2021/05/06 02:00:29;;;;;;;5.90;3.65;;;;;;;-141.50;100.00;63355.56;5034873;28;20521;-79
2021/05/06 02:02:56;;;;;;;6.32;3.92;;;;;;;-141.50;100.00;63355.56;5052699;28;20447;-78
2021/05/06 02:05:22;;;;;;;6.38;3.58;;;;;;;-141.50;100.00;63355.56;5057575;28;20080;-80
2021/05/06 02:07:48;;;;;;;5.93;3.70;;;;;;;-141.50;100.00;63355.56;5054046;28;20464;-78
2021/05/06 02:10:18;;;;;;;7.20;4.18;;;;;;;-141.50;100.00;63355.56;5035590;28;20045;-78
2021/05/06 02:12:44;;;;;;;7.78;3.90;;;;;;;-141.50;100.00;63355.56;5047190;28;20053;-80
2021/05/06 02:15:37;;;;;;;5.85;3.67;;;;;;;-141.50;100.00;63355.56;5054735;28;20044;-79
2021/05/06 02:17:59;;;;;;;6.82;3.80;;;;;;;-141.50;100.00;63355.56;5033417;28;20056;-78
2021/05/06 02:20:25;;;;;;;9.52;4.13;;;;;;;-141.50;100.00;63355.56;5035254;28;20110;-80
2021/05/06 02:22:52;;;;;;;8.55;3.78;;;;;;;-141.50;100.00;63355.56;5052222;28;20412;-80
2021/05/06 02:25:19;;;;;;;7.22;4.30;;;;;;;-141.50;100.00;63355.56;5051983;28;20052;-77
2021/05/06 02:27:46;;;;;;;7.72;4.43;;;;;;;-141.50;100.00;63355.56;5052149;28;20047;-79
2021/05/06 02:30:12;;;;;;;7.55;4.28;;;;;;;-141.50;100.00;63355.56;5052168;28;20697;-80
2021/05/06 02:32:39;;;;;;;6.07;4.05;;;;;;;-141.50;100.00;63355.56;5035446;28;20730;-79
2021/05/06 02:35:06;;;;;;;7.72;4.13;;;;;;;-141.50;100.00;63355.56;5035393;28;20045;-79
2021/05/06 02:37:32;;;;;;;9.02;4.35;;;;;;;-141.50;100.00;63355.56;5052704;28;20041;-79
2021/05/06 02:39:59;;;;;;;6.35;4.13;;;;;;;-141.50;100.00;63355.56;5034610;28;20168;-79
2021/05/06 02:42:25;;;;;;;7.40;4.43;;;;;;;-141.50;100.00;63355.56;5040626;28;20055;-80
2021/05/06 02:44:53;;;;;;;6.93;4.28;;;;;;;-141.50;100.00;63355.56;5052060;28;20104;-80
2021/05/06 02:47:20;;;;;;;7.03;4.13;;;;;;;-141.50;100.00;63355.56;5036412;28;20044;-79
2021/05/06 02:49:48;;;;;;;9.63;4.47;;;;;;;-141.50;100.00;63355.56;5052478;28;20049;-79
2021/05/06 02:52:31;;;;;;;8.82;4.40;;;;;;;-141.50;100.00;63355.56;5035038;28;20053;-79
2021/05/06 02:55:08;;;;;;;7.78;4.38;;;;;;;-141.50;100.00;63355.56;5052034;28;20052;-79
2021/05/06 02:57:39;;;;;;;8.85;4.45;;;;;;;-141.50;100.00;63355.56;5054522;28;20045;-79
2021/05/06 03:02:50;;;;;;;8.93;4.70;;;;;;;-141.50;100.00;63355.56;5053546;28;20063;-79
2021/05/06 03:05:18;;;;;;;7.53;4.38;;;;;;;-141.50;100.00;63355.56;5053687;28;20053;-79
2021/05/06 03:08:21;;;;;;;9.73;4.20;;;;;;;-141.50;100.00;63355.56;5053645;28;20048;-79
2021/05/06 03:24:33;;;;;;;7.30;4.10;;;;;;;-141.50;100.00;63355.56;5054129;28;20099;-79
2021/05/06 03:27:01;;;;;;;7.20;4.22;;;;;;;-141.50;100.00;63355.56;5035430;28;20056;-80
2021/05/06 03:29:35;;;;;;;10.15;4.40;;;;;;;-141.50;100.00;63355.56;5036637;28;20091;-80
2021/05/06 03:32:20;;;;;;;7.70;3.70;;;;;;;-141.50;100.00;63355.56;5053878;28;20052;-79
2021/05/06 03:35:12;;;;;;;7.32;4.00;;;;;;;-141.50;100.00;63355.56;5035394;28;20098;-80
2021/05/06 03:46:31;;;;;;;10.20;4.13;;;;;;;-141.50;100.00;63355.56;5050449;28;20041;-79
2021/05/06 04:27:09;;;;;;;7.13;3.67;;;;;;;-141.50;100.00;63355.56;5076486;28;20048;-77
2021/05/06 04:37:39;;;;;;;8.02;4.22;;;;;;;-141.50;100.00;63355.56;5103712;22;20044;-80
2021/05/06 04:40:13;;;;;;;8.63;3.75;;;;;;;-141.50;100.00;63355.56;5061656;28;20048;-80
2021/05/06 04:45:47;;;;;;;7.25;3.80;;;;;;;-141.50;100.00;63355.56;5095094;28;20555;-81
2021/05/06 04:53:47;;;;;;;6.97;4.07;;;;;;;-141.50;100.00;63355.56;5076988;28;20463;-80
2021/05/06 04:59:17;;;;;;;8.70;3.58;;;;;;;-141.50;100.00;63355.56;5071489;28;20123;-80
2021/05/06 05:04:36;;;;;;;7.63;3.75;;;;;;;-141.50;100.00;63355.56;5079403;28;20392;-82
2021/05/06 05:18:01;;;;;;;8.00;4.03;;;;;;;-141.50;100.00;63355.56;5036820;28;20068;-80
2021/05/06 05:20:46;;;;;;;6.63;3.50;;;;;;;-141.50;100.00;63355.56;5088768;28;20412;-79
2021/05/06 05:25:47;;;;;;;7.28;3.70;;;;;;;-141.50;100.00;63355.56;5089275;28;20078;-79
2021/05/06 05:28:13;;;;;;;8.10;3.63;;;;;;;-141.50;100.00;63355.56;5086861;28;20047;-79
2021/05/06 05:30:40;;;;;;;6.47;3.40;;;;;;;-141.50;100.00;63355.56;5069532;28;20051;-80
2021/05/06 05:33:13;;;;;;;7.32;3.47;;;;;;;-141.50;100.00;63355.56;5053504;28;20079;-79
2021/05/06 05:35:43;;;;;;;7.25;3.30;;;;;;;-141.50;100.00;63355.56;5054888;28;20303;-79
2021/05/06 05:40:41;;;;;;;7.07;3.28;;;;;;;-141.50;100.00;63355.56;5051969;28;20424;-79
2021/05/06 05:56:42;;;;;;;6.13;3.50;;;;;;;-141.50;100.00;63355.56;5069970;28;20124;-80
2021/05/06 05:59:08;;;;;;;11.65;3.67;;;;;;;-141.50;100.00;63355.56;5054742;28;20056;-79
2021/05/06 06:01:34;;;;;;;7.50;3.00;;;;;;;-141.50;100.00;63355.56;5054827;28;20044;-79
2021/05/06 06:04:01;;;;;;;5.80;3.05;;;;;;;-141.50;100.00;63355.56;5052525;28;20528;-79
2021/05/06 06:06:27;;;;;;;6.13;3.15;;;;;;;-141.50;100.00;63355.56;5074655;28;20040;-79
2021/05/06 06:08:56;;;;;;;6.22;2.75;;;;;;;-141.50;100.00;63355.56;5078465;28;20503;-80
2021/05/06 06:11:22;;;;;;;6.32;3.05;;;;;;;-141.50;100.00;63355.56;5048211;28;20389;-79
2021/05/06 06:13:50;;;;;;;5.78;2.85;;;;;;;-141.50;100.00;63355.56;5068042;28;20078;-79
2021/05/06 06:18:48;;;;;;;3.85;2.50;;;;;;;-141.50;100.00;63355.56;5086272;28;20075;-79
2021/05/06 06:23:41;;;;;;;5.53;2.60;;;;;;;-141.50;100.00;63355.56;5086321;28;20052;-80
2021/05/06 06:26:07;;;;;;;4.30;2.45;;;;;;;-141.50;100.00;63355.56;5054655;28;20485;-79
2021/05/06 06:28:39;;;;;;;6.38;2.72;;;;;;;-141.50;100.00;63355.56;5051810;28;20043;-80
2021/05/06 06:31:13;;;;;;;6.22;2.55;;;;;;;-141.50;100.00;63355.56;5070864;28;20048;-82
2021/05/06 06:33:39;;;;;;;5.88;2.55;;;;;;;-141.50;100.00;63355.56;5054006;28;20094;-79
2021/05/06 06:36:06;;;;;;;4.90;2.30;;;;;;;-141.50;100.00;63355.56;5071866;28;20143;-80
2021/05/06 06:38:32;;;;;;;3.90;2.47;;;;;;;-141.50;100.00;63355.56;5076803;28;20554;-80
2021/05/06 06:41:00;;;;;;;4.32;2.60;;;;;;;-141.50;100.00;63355.56;5075511;28;20308;-80
2021/05/06 06:43:26;;;;;;;5.13;2.67;;;;;;;-141.50;100.00;63355.56;5058474;28;20044;-80
2021/05/06 06:45:52;;;;;;;6.45;2.75;;;;;;;-141.50;100.00;63355.56;5075245;28;20052;-80
2021/05/06 06:48:18;;;;;;;5.43;2.85;;;;;;;-141.50;100.00;63355.56;5057809;28;20052;-80
2021/05/06 06:50:44;;;;;;;4.32;2.30;;;;;;;-141.50;100.00;63355.56;5054896;28;20046;-80
2021/05/06 06:53:13;;;;;;;3.95;2.22;;;;;;;-141.50;100.00;63355.56;5089189;28;20590;-79
2021/05/06 06:55:39;;;;;;;3.97;2.15;;;;;;;-141.50;100.00;63355.56;5072379;28;20067;-80
2021/05/06 06:58:25;;;;;;;7.15;2.65;;;;;;;-141.50;100.00;63355.56;5059747;28;20052;-80
2021/05/06 07:00:52;;;;;;;5.03;2.40;;;;;;;-141.50;100.00;63355.56;5042988;28;20052;-80
2021/05/06 07:03:18;;;;;;;4.68;2.28;;;;;;;-141.50;100.00;63355.56;5074285;28;20056;-80
2021/05/06 07:05:44;;;;;;;4.00;2.30;;;;;;;-141.50;100.00;63355.56;5079082;28;20059;-81
2021/05/06 07:08:18;;;;;;;5.32;2.15;;;;;;;-141.50;100.00;63355.56;5061272;28;20048;-80
2021/05/06 07:10:46;;;;;;;5.97;1.90;;;;;;;-141.50;100.00;63355.56;5062531;28;20107;-79
2021/05/06 07:13:14;;;;;;;4.07;2.20;;;;;;;-141.50;100.00;63355.56;5054267;28;20036;-80
2021/05/06 07:15:40;;;;;;;4.78;1.90;;;;;;;-141.50;100.00;63355.56;5090712;28;20143;-79
2021/05/06 07:18:09;;;;;;;3.50;1.70;;;;;;;-141.50;100.00;63355.56;5090371;28;20044;-81
2021/05/06 07:20:36;;;;;;;4.00;2.50;;;;;;;-141.50;100.00;63355.56;5072286;28;20105;-80
2021/05/06 07:23:02;;;;;;;5.22;2.05;;;;;;;-141.50;100.00;63355.56;5072481;28;20036;-80
2021/05/06 07:25:32;;;;;;;3.35;2.20;;;;;;;-141.50;100.00;63355.56;5090362;28;20048;-80
2021/05/06 07:28:12;;;;;;;7.82;2.10;;;;;;;-141.50;100.00;63355.56;5057755;28;20055;-81
2021/05/06 07:30:40;;;;;;;4.18;1.80;;;;;;;-141.50;100.00;63355.56;5087879;28;20051;-80
2021/05/06 07:33:10;;;;;;;2.75;1.85;;;;;;;-141.50;100.00;63355.56;5071059;28;20387;-81
2021/05/06 07:35:40;;;;;;;4.25;1.60;;;;;;;-141.50;100.00;63355.56;5088291;28;20271;-81
2021/05/06 07:38:11;;;;;;;5.53;1.45;;;;;;;-141.50;100.00;63355.56;5073454;28;20039;-81
2021/05/06 07:40:40;;;;;;;3.50;1.60;;;;;;;-141.50;100.00;63355.56;5091346;28;20076;-80
2021/05/06 07:43:10;;;;;;;5.35;1.98;;;;;;;-141.50;100.00;63355.56;5056545;28;20044;-81
2021/05/06 07:45:38;;;;;;;2.65;1.80;;;;;;;-141.50;100.00;63355.56;5072768;28;20131;-81
2021/05/06 07:48:08;;;;;;;5.70;2.17;;;;;;;-141.50;100.00;63355.56;5073289;28;20044;-81
2021/05/06 07:50:39;;;;;;;7.78;2.00;;;;;;;-141.50;100.00;63355.56;5053445;28;20044;-82
2021/05/06 07:53:20;;;;;;;4.97;1.90;;;;;;;-141.50;100.00;63355.56;5069878;28;20056;-80
2021/05/06 07:55:49;;;;;;;5.28;1.85;;;;;;;-141.50;100.00;63355.56;5069538;28;20044;-81
2021/05/06 07:58:18;;;;;;;7.63;2.28;;;;;;;-141.50;100.00;63355.56;5084597;28;20052;-82
2021/05/06 08:00:44;;;;;;;6.75;2.25;;;;;;;-141.50;100.00;63355.56;5053164;28;20143;-81
2021/05/06 08:03:10;;;;;;;5.03;2.05;;;;;;;-141.50;100.00;63355.56;5084758;28;20048;-80
2021/05/06 08:05:37;;;;;;;6.80;1.95;;;;;;;-141.50;100.00;63355.56;5084774;28;20396;-80
2021/05/06 08:08:04;;;;;;;7.30;2.10;;;;;;;-141.50;100.00;63355.56;5067665;28;20114;-80
2021/05/06 08:10:30;;;;;;;5.90;2.20;;;;;;;-141.50;100.00;63355.56;5050251;28;20049;-82
2021/05/06 08:12:58;;;;;;;4.03;2.15;;;;;;;-141.50;100.00;63355.56;5085148;28;20470;-80
2021/05/06 08:15:25;;;;;;;3.95;1.70;;;;;;;-141.50;100.00;63355.56;5051096;28;20052;-83
2021/05/06 08:17:51;;;;;;;3.75;1.60;;;;;;;-141.50;100.00;63355.56;5037282;28;20143;-81
2021/05/06 08:20:19;;;;;;;5.22;2.08;;;;;;;-141.50;100.00;63355.56;5053164;28;20044;-81
2021/05/06 08:22:46;;;;;;;9.38;2.03;;;;;;;-141.50;100.00;63355.56;5036019;28;20048;-81
2021/05/06 08:25:15;;;;;;;5.13;1.98;;;;;;;-141.50;100.00;63355.56;5051552;28;20040;-80
2021/05/06 08:27:42;;;;;;;4.82;1.85;;;;;;;-141.50;100.00;63355.56;5073186;28;20039;-80
2021/05/06 08:30:11;;;;;;;8.82;2.15;;;;;;;-141.50;100.00;63355.56;5105186;28;20048;-80
2021/05/06 08:32:38;;;;;;;5.45;1.98;;;;;;;-141.50;100.00;63355.56;5090148;28;20044;-81
2021/05/06 08:35:17;;;;;;;5.78;1.48;;;;;;;-141.50;100.00;63355.56;5093682;28;20127;-81
2021/05/06 08:37:46;;;;;;;3.13;1.60;;;;;;;-141.50;100.00;63355.56;5055296;28;20098;-80
2021/05/06 08:40:13;;;;;;;5.47;1.80;;;;;;;-141.50;100.00;63355.56;5051439;28;20040;-80
2021/05/06 08:42:42;;;;;;;6.15;1.98;;;;;;;-141.50;100.00;63355.56;5055284;28;20066;-81
2021/05/06 08:45:11;;;;;;;9.23;1.90;;;;;;;-141.50;100.00;63355.56;5036663;28;20044;-81
2021/05/06 08:47:37;;;;;;;3.45;1.60;;;;;;;-141.50;100.00;63355.56;5069563;28;20037;-81
2021/05/06 08:50:04;;;;;;;5.28;1.85;;;;;;;-141.50;100.00;63355.56;5054387;28;20059;-80
2021/05/06 08:52:31;;;;;;;6.07;1.75;;;;;;;-141.50;100.00;63355.56;5081071;28;20044;-81
2021/05/06 08:54:57;;;;;;;3.63;1.60;;;;;;;-141.50;100.00;63355.56;5090685;28;20048;-80
2021/05/06 08:57:27;;;;;;;5.57;1.60;;;;;;;-141.50;100.00;63355.56;5061775;28;20116;-80
2021/05/06 08:59:53;;;;;;;4.47;1.80;;;;;;;-141.50;100.00;63355.56;5064465;28;20055;-80
2021/05/06 09:02:20;;;;;;;6.47;1.90;;;;;;;-141.50;100.00;63355.56;5059087;28;20076;-79
2021/05/06 09:04:47;;;;;;;5.35;1.60;;;;;;;-141.50;100.00;63355.56;5041357;28;20139;-81
2021/05/06 09:07:13;;;;;;;4.68;1.70;;;;;;;-141.50;100.00;63355.56;5074652;28;20071;-80
2021/05/06 09:09:49;;;;;;;3.78;1.40;;;;;;;-141.50;100.00;63355.56;5090756;28;20051;-80
2021/05/06 09:12:17;;;;;;;3.33;1.30;;;;;;;-141.50;100.00;63355.56;5058108;28;20473;-80
2021/05/06 09:14:50;;;;;;;4.28;1.30;;;;;;;-141.50;100.00;63355.56;5040160;28;20567;-81
2021/05/06 09:17:33;;;;;;;3.38;1.38;;;;;;;-141.50;100.00;63355.56;5057724;28;20044;-81
2021/05/06 09:20:14;;;;;;;4.22;1.52;;;;;;;-141.50;100.00;63355.56;5088191;28;20622;-80
2021/05/06 09:22:46;;;;;;;4.40;1.45;;;;;;;-141.50;100.00;63355.56;5088914;28;20607;-80
2021/05/06 09:25:32;;;;;;;12.60;1.92;;;;;;;-141.50;100.00;63355.56;5089954;28;20052;-79
2021/05/06 09:28:01;;;;;;;3.58;1.55;;;;;;;-141.50;100.00;63355.56;5090761;28;20041;-80
2021/05/06 09:30:29;;;;;;;3.15;1.60;;;;;;;-141.50;100.00;63355.56;5075865;28;20039;-80
2021/05/06 09:33:00;;;;;;;7.38;2.45;;;;;;;-141.50;100.00;63355.56;5076280;28;20045;-81
2021/05/06 09:35:27;;;;;;;5.53;1.80;;;;;;;-141.50;100.00;63355.56;5093982;28;20083;-79
2021/05/06 09:37:53;;;;;;;4.93;1.83;;;;;;;-141.50;100.00;63355.56;5078870;28;20416;-80
2021/05/06 09:40:19;;;;;;;4.50;1.60;;;;;;;-141.50;100.00;63355.56;5093967;28;20104;-80
2021/05/06 09:42:49;;;;;;;6.78;1.60;;;;;;;-141.50;100.00;63355.56;5057881;28;20044;-79
2021/05/06 09:45:23;;;;;;;8.70;1.98;;;;;;;-141.50;100.00;63355.56;5102154;28;20116;-80
2021/05/06 09:48:11;;;;;;;4.55;1.60;;;;;;;-141.50;100.00;63355.56;5087129;28;20124;-79
2021/05/06 09:50:40;;;;;;;4.30;1.55;;;;;;;-141.50;100.00;63355.56;5096124;28;20041;-80
2021/05/06 09:53:20;;;;;;;5.70;1.65;;;;;;;-141.50;100.00;63355.56;5075925;28;20048;-80
2021/05/06 09:55:47;;;;;;;5.40;1.73;;;;;;;-141.50;100.00;63355.56;5057242;28;20048;-81
2021/05/06 09:58:28;;;;;;;5.43;1.77;;;;;;;-141.50;100.00;63355.56;5058222;28;20394;-81
2021/05/06 10:00:55;;;;;;;6.25;1.75;;;;;;;-141.50;100.00;63355.56;5078877;28;20155;-81
2021/05/06 10:03:29;;;;;;;6.15;1.65;;;;;;;-141.50;100.00;63355.56;5060152;28;20059;-81
2021/05/06 10:05:55;;;;;;;6.97;2.00;;;;;;;-141.50;100.00;63355.56;5037183;28;20532;-78
2021/05/06 10:08:36;;;;;;;4.95;1.58;;;;;;;-141.50;100.00;63355.56;5061494;28;20048;-81
2021/05/06 10:11:18;;;;;;;4.13;1.80;;;;;;;-141.50;100.00;63355.56;5047300;28;20049;-80
2021/05/06 10:13:47;;;;;;;4.40;1.88;;;;;;;-141.50;100.00;63355.56;5084744;28;20037;-80
2021/05/06 10:16:16;;;;;;;4.43;1.63;;;;;;;-141.50;100.00;63355.56;5115504;28;20048;-80
2021/05/06 10:18:45;;;;;;;6.68;1.60;;;;;;;-141.50;100.00;63355.56;5088626;28;20040;-80
2021/05/06 10:21:15;;;;;;;9.15;1.63;;;;;;;-141.50;100.00;63355.56;5061668;28;20602;-80
2021/05/06 10:23:46;;;;;;;6.80;1.60;;;;;;;-141.50;100.00;63355.56;5109350;28;20669;-81
2021/05/06 10:26:16;;;;;;;4.10;1.70;;;;;;;-141.50;100.00;63355.56;5074730;28;20109;-80
2021/05/06 10:28:42;;;;;;;6.35;1.88;;;;;;;-141.50;100.00;63355.56;5095220;28;20048;-80
2021/05/06 10:31:09;;;;;;;4.28;1.60;;;;;;;-141.50;100.00;63355.56;5050523;28;20044;-80
2021/05/06 10:33:38;;;;;;;6.43;1.70;;;;;;;-141.50;100.00;63355.56;5074563;28;20123;-80
2021/05/06 10:36:05;;;;;;;3.08;1.70;;;;;;;-141.50;100.00;63355.56;5073238;28;20127;-80
2021/05/06 10:38:33;;;;;;;5.38;2.05;;;;;;;-141.50;100.00;63355.56;5059731;23;20511;-81
2021/05/06 10:41:34;;;;;;;4.15;1.85;;;;;;;-141.50;100.00;63355.56;5068238;28;20492;-81
2021/05/06 10:44:09;;;;;;;5.32;1.50;;;;;;;-141.50;100.00;63355.56;5061293;28;20500;-81
2021/05/06 10:47:03;;;;;;;5.40;1.50;;;;;;;-141.50;100.00;63355.56;5051660;28;20045;-83
2021/05/06 10:49:38;;;;;;;3.40;1.40;;;;;;;-141.50;100.00;63355.56;5061338;28;20059;-80
2021/05/06 10:52:06;;;;;;;4.55;1.40;;;;;;;-141.50;100.00;63355.56;5075318;23;20044;-78
2021/05/06 10:54:39;;;;;;;5.40;1.20;;;;;;;-141.50;100.00;63355.56;5067798;28;20037;-77
2021/05/06 10:57:13;;;;;;;3.05;1.38;;;;;;;-141.50;100.00;63355.56;5085793;28;20032;-80
2021/05/06 10:59:44;;;;;;;6.80;1.55;;;;;;;-141.50;100.00;63355.56;5067466;28;20067;-79
2021/05/06 11:02:31;;;;;;;3.40;1.45;;;;;;;-141.50;100.00;63355.56;5063971;28;20044;-80
2021/05/06 11:05:11;;;;;;;2.28;1.30;;;;;;;-141.50;100.00;63355.56;5058580;28;20093;-78
2021/05/06 11:07:37;;;;;;;2.10;1.20;;;;;;;-141.50;100.00;63355.56;5061784;28;20037;-78
2021/05/06 11:10:04;;;;;;;3.58;1.55;;;;;;;-141.50;100.00;63355.56;5063382;28;20040;-78
2021/05/06 11:12:37;;;;;;;6.07;1.80;;;;;;;-141.50;100.00;63355.56;5055608;28;20040;-78
2021/05/06 11:15:21;;;;;;;5.88;1.70;;;;;;;-141.50;100.00;63355.56;5037375;28;20063;-80
2021/05/06 11:17:47;;;;;;;6.60;1.45;;;;;;;-141.50;100.00;63355.56;5034333;28;20044;-78
2021/05/06 11:20:13;;;;;;;8.32;1.90;;;;;;;-141.50;100.00;63355.56;5059237;28;20119;-78
2021/05/06 11:22:55;;;;;;;3.72;1.65;;;;;;;-141.50;100.00;63355.56;5043544;28;20103;-78
2021/05/06 11:25:32;;;;;;;4.32;1.75;;;;;;;-141.50;100.00;63355.56;5047492;28;20293;-79
2021/05/06 11:27:59;;;;;;;3.95;1.80;;;;;;;-141.50;100.00;63355.56;5044068;28;20048;-80
2021/05/06 11:30:43;;;;;;;5.07;1.70;;;;;;;-141.50;100.00;63355.56;5060463;28;20064;-77
2021/05/06 11:33:18;;;;;;;2.65;1.58;;;;;;;-141.50;100.00;63355.56;5061530;28;20123;-78
2021/05/06 11:35:57;;;;;;;5.13;1.50;;;;;;;-141.50;100.00;63355.56;5053031;28;20566;-77
2021/05/06 11:38:42;;;;;;;6.45;1.63;;;;;;;-141.50;100.00;63355.56;5070954;28;20144;-79
2021/05/06 11:41:12;;;;;;;2.92;1.48;;;;;;;-141.50;100.00;63355.56;5052689;28;20048;-79
2021/05/06 11:43:47;;;;;;;4.03;1.70;;;;;;;-141.50;100.00;63355.56;5059788;28;20041;-76
2021/05/06 11:46:15;;;;;;;6.47;1.67;;;;;;;-141.50;100.00;63355.56;5040247;28;20041;-77
2021/05/06 11:48:41;;;;;;;4.20;1.90;;;;;;;-141.50;100.00;63355.56;5046043;28;20360;-76
2021/05/06 11:51:09;;;;;;;5.00;2.00;;;;;;;-141.50;100.00;63355.56;5063375;28;20075;-80
2021/05/06 11:53:36;;;;;;;5.68;1.60;;;;;;;-141.50;100.00;63355.56;5060856;28;20131;-78
2021/05/06 11:56:10;;;;;;;6.38;1.73;;;;;;;-141.50;100.00;63355.56;5047067;28;20076;-78
2021/05/06 11:58:39;;;;;;;7.40;1.92;;;;;;;-141.50;100.00;63355.56;5051343;28;20033;-79
2021/05/06 12:01:06;;;;;;;5.18;1.70;;;;;;;-141.50;100.00;63355.56;5050962;28;20052;-77
2021/05/06 12:03:35;;;;;;;7.88;1.77;;;;;;;-141.50;100.00;63355.56;5052544;28;20048;-77
2021/05/06 12:06:04;;;;;;;3.30;1.27;;;;;;;-141.50;100.00;63355.56;5055785;28;20102;-77
2021/05/06 12:08:34;;;;;;;3.90;1.67;;;;;;;-141.50;100.00;63355.56;5031299;28;20045;-77
2021/05/06 12:11:03;;;;;;;5.18;1.73;;;;;;;-141.50;100.00;63355.56;5049910;28;20053;-79
2021/05/06 12:13:34;;;;;;;3.60;1.40;;;;;;;-141.50;100.00;63355.56;5049403;28;20044;-77
2021/05/06 12:16:17;;;;;;;3.85;1.55;;;;;;;-141.50;100.00;63355.56;5049212;28;20071;-76
2021/05/06 12:18:59;;;;;;;2.92;1.30;;;;;;;-141.50;100.00;63355.56;5048908;28;20037;-78
2021/05/06 12:21:39;;;;;;;6.05;1.80;;;;;;;-141.50;100.00;63355.56;5048607;28;20048;-78
2021/05/06 12:24:08;;;;;;;6.35;1.88;;;;;;;-141.50;100.00;63355.56;5048236;28;20045;-77
2021/05/06 12:26:35;;;;;;;4.95;1.25;;;;;;;-141.50;100.00;63355.56;5052319;28;20045;-77
2021/05/06 12:29:04;;;;;;;4.45;1.45;;;;;;;-141.50;100.00;63355.56;5036797;28;20048;-77
2021/05/06 12:31:47;;;;;;;3.35;1.33;;;;;;;-141.50;100.00;63355.56;5054528;28;20454;-77
2021/05/06 12:34:15;;;;;;;4.97;1.50;;;;;;;-141.50;100.00;63355.56;5021342;28;20048;-77
2021/05/06 12:36:51;;;;;;;3.15;1.40;;;;;;;-141.50;100.00;63355.56;5059903;28;20067;-80
2021/05/06 12:39:19;;;;;;;7.03;1.40;;;;;;;-141.50;100.00;63355.56;5058116;28;20051;-77
2021/05/06 12:42:05;;;;;;;4.35;1.60;;;;;;;-141.50;100.00;63355.56;5057730;28;20053;-77
2021/05/06 12:44:48;;;;;;;4.78;1.50;;;;;;;-141.50;100.00;63355.56;5052282;28;20059;-80
2021/05/06 12:47:19;;;;;;;5.13;1.50;;;;;;;-141.50;100.00;63355.56;5062479;28;20049;-78
2021/05/06 12:49:50;;;;;;;3.67;1.40;;;;;;;-141.50;100.00;63355.56;5054288;28;20049;-79
2021/05/06 12:52:30;;;;;;;4.57;1.63;;;;;;;-141.50;100.00;63355.56;5061062;28;20087;-79
2021/05/06 12:54:57;;;;;;;4.35;1.75;;;;;;;-141.50;100.00;63355.56;5055154;28;20053;-78
2021/05/06 12:57:23;;;;;;;4.30;1.50;;;;;;;-141.50;100.00;63355.56;5036450;28;20063;-80
2021/05/06 12:59:50;;;;;;;4.40;1.60;;;;;;;-141.50;100.00;63355.56;5052569;28;20090;-78
2021/05/06 13:02:17;;;;;;;3.38;1.60;;;;;;;-141.50;100.00;63355.56;5055003;28;20041;-77
2021/05/06 13:04:50;;;;;;;5.60;1.63;;;;;;;-141.50;100.00;63355.56;5069961;28;20040;-79
2021/05/06 13:07:18;;;;;;;7.28;1.80;;;;;;;-141.50;100.00;63355.56;5065122;28;20098;-78
2021/05/06 13:09:51;;;;;;;3.85;1.45;;;;;;;-141.50;100.00;63355.56;5059082;28;20049;-79
2021/05/06 13:12:23;;;;;;;3.33;1.65;;;;;;;-141.50;100.00;63355.56;5073049;28;20238;-78
2021/05/06 13:14:52;;;;;;;5.13;1.90;;;;;;;-141.50;100.00;63355.56;5072719;28;20137;-80
2021/05/06 13:17:27;;;;;;;5.38;1.83;;;;;;;-141.50;100.00;63355.56;5072264;28;20032;-77
2021/05/06 13:19:54;;;;;;;6.15;1.70;;;;;;;-141.50;100.00;63355.56;5055617;28;20045;-78
2021/05/06 13:22:22;;;;;;;3.95;1.70;;;;;;;-141.50;100.00;63355.56;5072536;28;20060;-77
2021/05/06 13:24:51;;;;;;;6.82;1.80;;;;;;;-141.50;100.00;63355.56;5072834;28;20079;-79
2021/05/06 13:27:20;;;;;;;3.50;1.80;;;;;;;-141.50;100.00;63355.56;5063025;28;20037;-78
2021/05/06 13:29:59;;;;;;;5.07;1.90;;;;;;;-141.50;100.00;63355.56;5060151;28;20035;-78
2021/05/06 13:32:32;;;;;;;4.85;1.55;;;;;;;-141.50;100.00;63355.56;5065490;28;20048;-79
2021/05/06 13:34:59;;;;;;;3.08;1.55;;;;;;;-141.50;100.00;63355.56;5055873;28;20086;-78
2021/05/06 13:37:36;;;;;;;4.68;1.52;;;;;;;-141.50;100.00;63355.56;5059140;28;20036;-78
2021/05/06 13:40:05;;;;;;;4.20;1.70;;;;;;;-141.50;100.00;63355.56;5051230;28;20048;-79
2021/05/06 13:42:31;;;;;;;4.65;1.70;;;;;;;-141.50;100.00;63355.56;5052608;28;20037;-78
2021/05/06 13:44:58;;;;;;;3.72;1.38;;;;;;;-141.50;100.00;63355.56;5066300;28;20504;-78
2021/05/06 13:47:25;;;;;;;5.32;2.28;;;;;;;-141.50;100.00;63355.56;5050979;28;20037;-74
2021/05/06 13:49:52;;;;;;;3.42;1.80;;;;;;;-141.50;100.00;63355.56;5033121;28;20049;-75
2021/05/06 13:52:19;;;;;;;3.92;1.80;;;;;;;-141.50;100.00;63355.56;5053257;28;20374;-76
2021/05/06 13:54:46;;;;;;;3.75;1.52;;;;;;;-141.50;100.00;63355.56;5055310;28;20318;-78
2021/05/06 13:57:12;;;;;;;5.82;1.73;;;;;;;-141.50;100.00;63355.56;5068619;28;20037;-76
2021/05/06 13:59:38;;;;;;;3.47;1.30;;;;;;;-141.50;100.00;63355.56;5052568;28;20136;-79
2021/05/06 14:02:07;;;;;;;1.67;1.17;;;;;;;-141.50;100.00;63355.56;5051919;28;20048;-78
2021/05/06 14:04:35;;;;;;;3.65;1.30;;;;;;;-141.50;100.00;63355.56;5033814;28;20057;-78
2021/05/06 14:07:01;;;;;;;3.42;1.40;;;;;;;-141.50;100.00;63355.56;5032504;28;20049;-77
2021/05/06 14:09:27;;;;;;;3.60;1.40;;;;;;;-141.50;100.00;63355.56;5051904;28;20049;-77
2021/05/06 14:11:53;;;;;;;5.00;1.52;;;;;;;-141.50;100.00;63355.56;5033571;28;20048;-78
2021/05/06 14:14:20;;;;;;;3.80;1.40;;;;;;;-141.50;100.00;63355.56;5051274;28;20236;-78
2021/05/06 14:16:49;;;;;;;4.28;1.40;;;;;;;-141.50;100.00;63355.56;5063730;28;20041;-78
2021/05/06 14:19:15;;;;;;;5.80;1.20;;;;;;;-141.50;100.00;63355.56;5036480;28;20121;-79
2021/05/06 14:21:46;;;;;;;2.90;1.25;;;;;;;-141.50;100.00;63355.56;5034878;28;20045;-77
2021/05/06 14:24:12;;;;;;;3.88;1.23;;;;;;;-141.50;100.00;63355.56;5054022;28;20059;-78
2021/05/06 14:26:39;;;;;;;3.80;1.15;;;;;;;-141.50;100.00;63355.56;5054808;28;20045;-77